createdAt,value
2018-07-18T00:00:58.251Z,0
2018-07-18T00:01:58.840Z,0
2018-07-18T00:02:59.403Z,0
2018-07-18T00:03:59.952Z,0
2018-07-18T00:05:00.491Z,0
2018-07-18T00:06:01.049Z,0
2018-07-18T00:07:01.600Z,0
2018-07-18T00:08:02.154Z,0
2018-07-18T00:09:02.701Z,0
2018-07-18T00:10:03.256Z,0
2018-07-18T00:11:03.804Z,0
2018-07-18T00:12:04.355Z,0
2018-07-18T00:13:04.908Z,0
2018-07-18T00:14:05.463Z,0
2018-07-18T00:15:06.015Z,0
2018-07-18T00:16:06.565Z,0
2018-07-18T00:17:07.118Z,0
2018-07-18T00:18:07.672Z,0
2018-07-18T00:19:08.227Z,0
2018-07-18T00:20:08.778Z,0
2018-07-18T00:21:09.332Z,0
2018-07-18T00:22:09.907Z,0
2018-07-18T00:23:10.440Z,0
2018-07-18T00:24:10.995Z,0
2018-07-18T00:25:11.554Z,0
2018-07-18T00:26:12.094Z,0
2018-07-18T00:27:12.656Z,0
2018-07-18T00:28:13.204Z,0
2018-07-18T00:29:13.832Z,0
2018-07-18T00:30:14.313Z,0
2018-07-18T00:31:14.867Z,0
2018-07-18T00:32:15.421Z,0
2018-07-18T00:33:15.976Z,0
2018-07-18T00:34:16.533Z,0
2018-07-18T00:35:17.085Z,0
2018-07-18T00:36:17.645Z,0
2018-07-18T00:37:18.201Z,0
2018-07-18T00:38:18.759Z,0
2018-07-18T00:39:19.306Z,0
2018-07-18T00:40:19.861Z,0
2018-07-18T00:41:20.415Z,0
2018-07-18T00:42:20.967Z,0
2018-07-18T00:43:21.520Z,0
2018-07-18T00:44:22.074Z,0
2018-07-18T00:45:22.630Z,0
2018-07-18T00:46:23.181Z,0
2018-07-18T00:47:23.734Z,0
2018-07-18T00:48:24.291Z,0
2018-07-18T00:49:24.842Z,0
2018-07-18T00:50:25.394Z,0
2018-07-18T00:51:25.940Z,0
2018-07-18T00:52:26.493Z,0
2018-07-18T00:53:27.047Z,0
2018-07-18T00:54:27.600Z,0
2018-07-18T00:55:28.153Z,0
2018-07-18T00:56:28.714Z,0
2018-07-18T00:57:29.261Z,0
2018-07-18T00:58:29.806Z,0
2018-07-18T00:59:30.361Z,0
2018-07-18T01:00:30.915Z,0
2018-07-18T01:01:31.471Z,0
2018-07-18T01:02:32.015Z,0
2018-07-18T01:03:32.574Z,0
2018-07-18T01:04:33.124Z,0
2018-07-18T01:05:33.679Z,0
2018-07-18T01:06:34.235Z,0
2018-07-18T01:07:34.786Z,0
2018-07-18T01:08:35.343Z,0
2018-07-18T01:09:35.888Z,0
2018-07-18T01:10:36.445Z,0
2018-07-18T01:11:36.997Z,0
2018-07-18T01:12:37.547Z,0
2018-07-18T01:13:38.099Z,0
2018-07-18T01:14:38.651Z,0
2018-07-18T01:15:39.204Z,0
2018-07-18T01:16:39.762Z,0
2018-07-18T01:17:40.312Z,0
2018-07-18T01:18:40.856Z,0
2018-07-18T01:19:41.410Z,0
2018-07-18T01:20:41.964Z,0
2018-07-18T01:21:42.517Z,0
2018-07-18T01:22:43.072Z,0
2018-07-18T01:23:43.624Z,0
2018-07-18T01:24:44.177Z,0
2018-07-18T01:25:44.729Z,0
2018-07-18T01:26:45.288Z,0
2018-07-18T01:27:45.838Z,0
2018-07-18T01:28:46.385Z,0
2018-07-18T01:29:46.938Z,0
2018-07-18T01:30:47.491Z,0
2018-07-18T01:31:48.045Z,0
2018-07-18T01:32:48.597Z,0
2018-07-18T01:33:49.150Z,0
2018-07-18T01:34:49.704Z,0
2018-07-18T01:35:50.254Z,0
2018-07-18T01:36:50.805Z,0
2018-07-18T01:37:51.366Z,0
2018-07-18T01:38:51.914Z,0
2018-07-18T01:39:52.472Z,0
2018-07-18T01:40:53.051Z,0
2018-07-18T01:41:53.579Z,0
2018-07-18T01:42:54.132Z,0
2018-07-18T01:43:54.683Z,0
2018-07-18T01:44:55.234Z,0
2018-07-18T01:45:55.786Z,0
2018-07-18T01:46:56.338Z,0
2018-07-18T01:47:56.892Z,0
2018-07-18T01:48:57.446Z,0
2018-07-18T01:49:58.004Z,0
2018-07-18T01:50:58.555Z,0
2018-07-18T01:51:59.108Z,0
2018-07-18T01:52:59.653Z,0
2018-07-18T01:54:00.208Z,0
2018-07-18T01:55:00.758Z,0
2018-07-18T01:56:01.312Z,0
2018-07-18T01:57:01.859Z,0
2018-07-18T01:58:02.413Z,0
2018-07-18T01:59:02.959Z,0
2018-07-18T02:00:03.510Z,0
2018-07-18T02:01:04.061Z,0
2018-07-18T02:02:04.617Z,0
2018-07-18T02:03:05.173Z,0
2018-07-18T02:04:05.725Z,0
2018-07-18T02:05:06.285Z,0
2018-07-18T02:06:06.830Z,0
2018-07-18T02:07:07.382Z,0
2018-07-18T02:08:07.939Z,0
2018-07-18T02:09:08.492Z,0
2018-07-18T02:10:09.047Z,0
2018-07-18T02:11:09.595Z,0
2018-07-18T02:12:10.152Z,0
2018-07-18T02:13:10.709Z,0
2018-07-18T02:14:11.259Z,0
2018-07-18T02:15:11.807Z,0
2018-07-18T02:16:12.355Z,0
2018-07-18T02:17:12.908Z,0
2018-07-18T02:18:13.460Z,0
2018-07-18T02:19:14.016Z,0
2018-07-18T02:20:14.566Z,0
2018-07-18T02:21:15.111Z,0
2018-07-18T02:22:15.664Z,0
2018-07-18T02:23:16.213Z,0
2018-07-18T02:24:16.760Z,0
2018-07-18T02:25:17.312Z,0
2018-07-18T02:26:17.867Z,0
2018-07-18T02:27:18.414Z,0
2018-07-18T02:28:18.966Z,0
2018-07-18T02:29:19.523Z,0
2018-07-18T02:30:20.074Z,0
2018-07-18T02:31:20.627Z,0
2018-07-18T02:32:21.178Z,0
2018-07-18T02:33:21.733Z,0
2018-07-18T02:34:22.277Z,0
2018-07-18T02:35:22.833Z,0
2018-07-18T02:36:23.384Z,0
2018-07-18T02:37:23.938Z,0
2018-07-18T02:38:24.491Z,0
2018-07-18T02:39:25.043Z,0
2018-07-18T02:40:25.592Z,0
2018-07-18T02:41:26.146Z,0
2018-07-18T02:42:26.701Z,0
2018-07-18T02:43:27.255Z,0
2018-07-18T02:44:27.811Z,0
2018-07-18T02:45:28.365Z,0
2018-07-18T02:46:28.919Z,0
2018-07-18T02:47:29.472Z,0
2018-07-18T02:48:30.024Z,0
2018-07-18T02:49:30.581Z,0
2018-07-18T02:50:31.130Z,0
2018-07-18T02:51:31.686Z,0
2018-07-18T02:52:32.238Z,0
2018-07-18T02:53:32.791Z,0
2018-07-18T02:54:33.348Z,0
2018-07-18T02:55:33.957Z,0
2018-07-18T02:56:34.448Z,0
2018-07-18T02:57:34.999Z,0
2018-07-18T02:58:35.553Z,0
2018-07-18T02:59:36.112Z,0
2018-07-18T03:00:36.652Z,0
2018-07-18T03:01:37.206Z,0
2018-07-18T03:02:37.759Z,0
2018-07-18T03:03:38.303Z,0
2018-07-18T03:04:38.860Z,0
2018-07-18T03:05:39.412Z,0
2018-07-18T03:06:39.960Z,0
2018-07-18T03:07:40.514Z,0
2018-07-18T03:08:41.059Z,0
2018-07-18T03:09:41.605Z,0
2018-07-18T03:10:42.155Z,0
2018-07-18T03:11:42.710Z,0
2018-07-18T03:12:43.264Z,0
2018-07-18T03:13:43.817Z,0
2018-07-18T03:14:44.367Z,0
2018-07-18T03:15:44.915Z,0
2018-07-18T03:16:45.469Z,0
2018-07-18T03:17:46.022Z,0
2018-07-18T03:18:46.570Z,0
2018-07-18T03:19:47.120Z,0
2018-07-18T03:20:47.674Z,0
2018-07-18T03:21:48.227Z,0
2018-07-18T03:22:48.778Z,0
2018-07-18T03:23:49.335Z,0
2018-07-18T03:24:49.887Z,0
2018-07-18T03:25:50.441Z,0
2018-07-18T03:26:50.994Z,0
2018-07-18T03:27:51.542Z,0
2018-07-18T03:28:52.095Z,0
2018-07-18T03:29:52.649Z,0
2018-07-18T03:30:53.201Z,0
2018-07-18T03:31:53.760Z,5
2018-07-18T03:32:54.315Z,5
2018-07-18T03:33:54.862Z,5
2018-07-18T03:34:55.420Z,5
2018-07-18T03:35:55.977Z,5
2018-07-18T03:36:56.555Z,5
2018-07-18T03:37:57.077Z,5
2018-07-18T03:38:57.632Z,10
2018-07-18T03:39:58.183Z,10
2018-07-18T03:40:58.735Z,10
2018-07-18T03:41:59.289Z,10
2018-07-18T03:42:59.843Z,10
2018-07-18T03:44:00.403Z,15
2018-07-18T03:45:00.956Z,15
2018-07-18T03:46:01.515Z,15
2018-07-18T03:47:02.071Z,15
2018-07-18T03:48:02.622Z,20
2018-07-18T03:49:03.178Z,20
2018-07-18T03:50:03.731Z,20
2018-07-18T03:51:04.281Z,20
2018-07-18T03:52:04.837Z,25
2018-07-18T03:53:05.397Z,25
2018-07-18T03:54:05.954Z,25
2018-07-18T03:55:06.504Z,30
2018-07-18T03:56:07.056Z,30
2018-07-18T03:57:07.616Z,30
2018-07-18T03:58:08.171Z,30
2018-07-18T03:59:08.736Z,35
2018-07-18T04:00:09.290Z,35
2018-07-18T04:01:09.845Z,35
2018-07-18T04:02:10.400Z,40
2018-07-18T04:03:10.958Z,40
2018-07-18T04:04:11.514Z,40
2018-07-18T04:05:12.077Z,45
2018-07-18T04:06:12.633Z,45
2018-07-18T04:07:13.194Z,45
2018-07-18T04:08:13.751Z,50
2018-07-18T04:09:14.312Z,50
2018-07-18T04:10:14.874Z,55
2018-07-18T04:11:15.457Z,55
2018-07-18T04:12:15.975Z,55
2018-07-18T04:13:16.533Z,60
2018-07-18T04:14:17.089Z,60
2018-07-18T04:15:17.643Z,60
2018-07-18T04:16:18.201Z,65
2018-07-18T04:17:18.750Z,65
2018-07-18T04:18:19.307Z,70
2018-07-18T04:19:19.870Z,70
2018-07-18T04:20:20.430Z,70
2018-07-18T04:21:20.984Z,75
2018-07-18T04:22:21.538Z,75
2018-07-18T04:23:22.096Z,75
2018-07-18T04:24:22.654Z,80
2018-07-18T04:25:23.217Z,80
2018-07-18T04:26:23.771Z,85
2018-07-18T04:27:24.363Z,85
2018-07-18T04:28:24.919Z,85
2018-07-18T04:29:25.503Z,85
2018-07-18T04:30:26.037Z,85
2018-07-18T04:31:26.585Z,90
2018-07-18T04:32:27.143Z,90
2018-07-18T04:33:27.701Z,90
2018-07-18T04:34:28.249Z,90
2018-07-18T04:35:28.862Z,95
2018-07-18T04:36:29.354Z,95
2018-07-18T04:37:29.916Z,95
2018-07-18T04:38:30.482Z,100
2018-07-18T04:39:31.024Z,100
2018-07-18T04:40:31.577Z,105
2018-07-18T04:41:32.135Z,105
2018-07-18T04:42:32.685Z,105
2018-07-18T04:43:33.242Z,110
2018-07-18T04:44:33.805Z,110
2018-07-18T04:45:34.362Z,110
2018-07-18T04:46:34.923Z,115
2018-07-18T04:47:35.473Z,115
2018-07-18T04:48:36.034Z,115
2018-07-18T04:49:36.596Z,120
2018-07-18T04:50:37.160Z,120
2018-07-18T04:51:37.718Z,125
2018-07-18T04:52:38.285Z,125
2018-07-18T04:53:38.867Z,125
2018-07-18T04:54:39.386Z,130
2018-07-18T04:55:40.009Z,135
2018-07-18T04:56:40.503Z,145
2018-07-18T04:57:41.061Z,180
2018-07-18T04:58:41.624Z,210
2018-07-18T04:59:42.186Z,220
2018-07-18T05:00:42.750Z,215
2018-07-18T05:01:43.307Z,220
2018-07-18T05:02:43.863Z,215
2018-07-18T05:03:44.425Z,225
2018-07-18T05:04:44.985Z,225
2018-07-18T05:05:45.549Z,205
2018-07-18T05:06:46.109Z,170
2018-07-18T05:07:46.669Z,150
2018-07-18T05:08:47.231Z,160
2018-07-18T05:09:47.850Z,185
2018-07-18T05:10:48.359Z,230
2018-07-18T05:11:48.922Z,265
2018-07-18T05:12:49.484Z,270
2018-07-18T05:13:50.050Z,275
2018-07-18T05:14:50.608Z,280
2018-07-18T05:15:51.260Z,285
2018-07-18T05:16:51.733Z,290
2018-07-18T05:17:52.302Z,305
2018-07-18T05:18:52.856Z,305
2018-07-18T05:19:53.415Z,300
2018-07-18T05:20:53.971Z,280
2018-07-18T05:21:54.594Z,245
2018-07-18T05:22:55.116Z,275
2018-07-18T05:23:55.687Z,325
2018-07-18T05:24:56.258Z,330
2018-07-18T05:25:56.828Z,295
2018-07-18T05:26:57.389Z,235
2018-07-18T05:27:57.957Z,195
2018-07-18T05:28:58.518Z,235
2018-07-18T05:29:59.211Z,305
2018-07-18T05:30:59.676Z,350
2018-07-18T05:32:00.245Z,360
2018-07-18T05:33:00.810Z,365
2018-07-18T05:34:01.405Z,370
2018-07-18T05:35:01.948Z,375
2018-07-18T05:36:02.518Z,385
2018-07-18T05:37:03.091Z,385
2018-07-18T05:38:03.662Z,390
2018-07-18T05:39:04.234Z,395
2018-07-18T05:40:04.797Z,345
2018-07-18T05:41:05.366Z,260
2018-07-18T05:42:05.933Z,225
2018-07-18T05:43:06.505Z,300
2018-07-18T05:44:07.078Z,390
2018-07-18T05:45:07.652Z,430
2018-07-18T05:46:08.223Z,440
2018-07-18T05:47:08.794Z,440
2018-07-18T05:48:09.366Z,450
2018-07-18T05:49:09.941Z,455
2018-07-18T05:50:10.513Z,465
2018-07-18T05:51:11.085Z,465
2018-07-18T05:52:11.666Z,475
2018-07-18T05:53:12.242Z,475
2018-07-18T05:54:12.810Z,490
2018-07-18T05:55:13.386Z,490
2018-07-18T05:56:13.961Z,490
2018-07-18T05:57:14.537Z,495
2018-07-18T05:58:15.108Z,510
2018-07-18T05:59:15.682Z,515
2018-07-18T06:00:16.257Z,520
2018-07-18T06:01:16.831Z,530
2018-07-18T06:02:17.400Z,535
2018-07-18T06:03:17.975Z,540
2018-07-18T06:04:18.545Z,545
2018-07-18T06:05:19.117Z,550
2018-07-18T06:06:19.696Z,560
2018-07-18T06:07:20.272Z,560
2018-07-18T06:08:20.855Z,575
2018-07-18T06:09:21.424Z,575
2018-07-18T06:10:22.060Z,580
2018-07-18T06:11:22.573Z,580
2018-07-18T06:12:23.155Z,600
2018-07-18T06:13:23.729Z,605
2018-07-18T06:14:24.302Z,615
2018-07-18T06:15:24.880Z,620
2018-07-18T06:16:25.454Z,620
2018-07-18T06:17:26.051Z,630
2018-07-18T06:18:26.604Z,640
2018-07-18T06:19:27.174Z,640
2018-07-18T06:20:27.749Z,645
2018-07-18T06:21:28.367Z,545
2018-07-18T06:22:28.941Z,400
2018-07-18T06:23:29.517Z,445
2018-07-18T06:24:30.095Z,625
2018-07-18T06:25:30.660Z,670
2018-07-18T06:26:31.233Z,655
2018-07-18T06:27:31.809Z,680
2018-07-18T06:28:32.389Z,695
2018-07-18T06:29:32.990Z,705
2018-07-18T06:30:33.529Z,715
2018-07-18T06:31:34.104Z,725
2018-07-18T06:32:34.681Z,725
2018-07-18T06:33:35.248Z,715
2018-07-18T06:34:35.824Z,740
2018-07-18T06:35:36.391Z,720
2018-07-18T06:36:37.034Z,765
2018-07-18T06:37:37.532Z,755
2018-07-18T06:38:38.111Z,725
2018-07-18T06:39:38.685Z,780
2018-07-18T06:40:39.260Z,790
2018-07-18T06:41:39.834Z,805
2018-07-18T06:42:40.402Z,805
2018-07-18T06:43:40.975Z,785
2018-07-18T06:44:41.543Z,805
2018-07-18T06:45:42.119Z,815
2018-07-18T06:46:42.697Z,805
2018-07-18T06:47:43.265Z,835
2018-07-18T06:48:43.841Z,835
2018-07-18T06:49:44.415Z,835
2018-07-18T06:50:44.989Z,835
2018-07-18T06:51:45.564Z,845
2018-07-18T06:52:46.149Z,855
2018-07-18T06:53:46.713Z,870
2018-07-18T06:54:47.296Z,865
2018-07-18T06:55:47.863Z,875
2018-07-18T06:56:48.431Z,875
2018-07-18T06:57:49.009Z,875
2018-07-18T06:58:49.578Z,885
2018-07-18T06:59:50.155Z,885
2018-07-18T07:00:50.740Z,900
2018-07-18T07:01:51.298Z,910
2018-07-18T07:02:51.874Z,920
2018-07-18T07:03:52.450Z,925
2018-07-18T07:04:53.025Z,930
2018-07-18T07:05:53.600Z,930
2018-07-18T07:06:54.180Z,895
2018-07-18T07:07:54.782Z,940
2018-07-18T07:08:55.328Z,980
2018-07-18T07:09:55.896Z,975
2018-07-18T07:10:56.499Z,980
2018-07-18T07:11:57.048Z,985
2018-07-18T07:12:57.627Z,985
2018-07-18T07:13:58.201Z,995
2018-07-18T07:14:58.771Z,1005
2018-07-18T07:15:59.348Z,1000
2018-07-18T07:16:59.925Z,995
2018-07-18T07:18:00.501Z,1010
2018-07-18T07:19:01.085Z,1025
2018-07-18T07:20:01.649Z,1020
2018-07-18T07:21:02.218Z,1015
2018-07-18T07:22:02.798Z,1070
2018-07-18T07:23:03.372Z,1075
2018-07-18T07:24:03.944Z,1085
2018-07-18T07:25:04.524Z,1095
2018-07-18T07:26:05.098Z,1100
2018-07-18T07:27:05.672Z,1115
2018-07-18T07:28:06.250Z,1110
2018-07-18T07:29:06.860Z,1130
2018-07-18T07:30:07.401Z,1130
2018-07-18T07:31:07.972Z,1155
2018-07-18T07:32:08.550Z,1105
2018-07-18T07:33:09.126Z,1165
2018-07-18T07:34:09.697Z,1155
2018-07-18T07:35:10.275Z,1185
2018-07-18T07:36:10.849Z,1185
2018-07-18T07:37:11.421Z,1195
2018-07-18T07:38:11.997Z,1200
2018-07-18T07:39:12.573Z,1200
2018-07-18T07:40:13.152Z,1160
2018-07-18T07:41:13.760Z,1170
2018-07-18T07:42:14.302Z,1215
2018-07-18T07:43:14.869Z,1240
2018-07-18T07:44:15.453Z,1270
2018-07-18T07:45:16.024Z,1285
2018-07-18T07:46:16.607Z,1285
2018-07-18T07:47:17.170Z,1210
2018-07-18T07:48:17.779Z,1075
2018-07-18T07:49:18.325Z,1155
2018-07-18T07:50:18.903Z,1275
2018-07-18T07:51:19.474Z,1275
2018-07-18T07:52:20.054Z,1320
2018-07-18T07:53:20.635Z,1340
2018-07-18T07:54:21.205Z,1255
2018-07-18T07:55:21.780Z,1335
2018-07-18T07:56:22.362Z,1265
2018-07-18T07:57:22.931Z,1300
2018-07-18T07:58:23.496Z,1280
2018-07-18T07:59:24.077Z,1295
2018-07-18T08:00:24.695Z,1320
2018-07-18T08:01:25.226Z,1345
2018-07-18T08:02:25.801Z,1395
2018-07-18T08:03:26.377Z,1390
2018-07-18T08:04:26.952Z,1390
2018-07-18T08:05:27.529Z,1385
2018-07-18T08:06:28.105Z,1395
2018-07-18T08:07:28.691Z,1430
2018-07-18T08:08:29.263Z,1420
2018-07-18T08:09:29.838Z,1455
2018-07-18T08:10:30.407Z,1480
2018-07-18T08:11:30.986Z,1485
2018-07-18T08:12:31.563Z,1500
2018-07-18T08:13:32.144Z,1490
2018-07-18T08:14:32.711Z,1515
2018-07-18T08:15:33.287Z,1545
2018-07-18T08:16:33.863Z,1520
2018-07-18T08:17:34.436Z,1430
2018-07-18T08:18:35.012Z,1370
2018-07-18T08:19:35.589Z,1450
2018-07-18T08:20:36.167Z,1495
2018-07-18T08:21:36.732Z,1585
2018-07-18T08:22:37.309Z,1605
2018-07-18T08:23:37.874Z,1590
2018-07-18T08:24:38.459Z,1595
2018-07-18T08:25:39.030Z,1605
2018-07-18T08:26:39.654Z,1605
2018-07-18T08:27:40.165Z,1620
2018-07-18T08:28:40.741Z,1620
2018-07-18T08:29:41.319Z,1600
2018-07-18T08:30:41.896Z,1670
2018-07-18T08:31:42.468Z,1630
2018-07-18T08:32:43.049Z,1585
2018-07-18T08:33:43.624Z,1620
2018-07-18T08:34:44.201Z,1625
2018-07-18T08:35:44.771Z,1635
2018-07-18T08:36:45.349Z,1675
2018-07-18T08:37:45.921Z,1695
2018-07-18T08:38:46.491Z,1635
2018-07-18T08:39:47.068Z,1665
2018-07-18T08:40:47.642Z,1685
2018-07-18T08:41:48.222Z,1705
2018-07-18T08:42:48.797Z,1730
2018-07-18T08:43:49.365Z,1745
2018-07-18T08:44:49.944Z,1735
2018-07-18T08:45:50.518Z,1750
2018-07-18T08:46:51.084Z,1795
2018-07-18T08:47:51.659Z,1820
2018-07-18T08:48:52.240Z,1825
2018-07-18T08:49:52.806Z,1795
2018-07-18T08:50:53.376Z,1845
2018-07-18T08:51:53.952Z,1855
2018-07-18T08:52:54.523Z,1885
2018-07-18T08:53:55.095Z,1825
2018-07-18T08:54:55.668Z,1840
2018-07-18T08:55:56.246Z,1870
2018-07-18T08:56:56.811Z,1855
2018-07-18T08:57:57.381Z,1925
2018-07-18T08:58:58.026Z,1955
2018-07-18T08:59:58.548Z,1960
2018-07-18T09:00:59.135Z,1975
2018-07-18T09:01:59.700Z,1935
2018-07-18T09:03:00.273Z,1880
2018-07-18T09:04:00.847Z,1865
2018-07-18T09:05:01.454Z,1805
2018-07-18T09:06:02.043Z,1835
2018-07-18T09:07:02.615Z,1800
2018-07-18T09:08:03.191Z,1565
2018-07-18T09:09:03.776Z,1700
2018-07-18T09:10:04.339Z,1710
2018-07-18T09:11:04.917Z,1725
2018-07-18T09:12:05.492Z,1855
2018-07-18T09:13:06.090Z,1945
2018-07-18T09:14:06.630Z,1985
2018-07-18T09:15:07.206Z,1915
2018-07-18T09:16:07.789Z,1760
2018-07-18T09:17:08.397Z,1740
2018-07-18T09:18:09.018Z,1745
2018-07-18T09:19:09.575Z,1680
2018-07-18T09:20:10.143Z,1960
2018-07-18T09:21:10.709Z,2065
2018-07-18T09:22:11.294Z,2085
2018-07-18T09:23:11.870Z,1975
2018-07-18T09:24:12.453Z,2015
2018-07-18T09:25:13.026Z,2015
2018-07-18T09:26:13.635Z,1995
2018-07-18T09:27:14.232Z,2090
2018-07-18T09:28:14.803Z,1995
2018-07-18T09:29:15.380Z,2165
2018-07-18T09:30:15.958Z,2130
2018-07-18T09:31:16.537Z,2200
2018-07-18T09:32:17.106Z,2120
2018-07-18T09:33:17.687Z,2000
2018-07-18T09:34:18.263Z,1965
2018-07-18T09:35:18.845Z,2105
2018-07-18T09:36:19.407Z,2130
2018-07-18T09:37:19.983Z,2150
2018-07-18T09:38:20.562Z,2120
2018-07-18T09:39:21.137Z,2180
2018-07-18T09:40:21.705Z,2135
2018-07-18T09:41:22.285Z,2170
2018-07-18T09:42:22.857Z,2080
2018-07-18T09:43:23.432Z,2090
2018-07-18T09:44:24.009Z,2070
2018-07-18T09:45:24.609Z,2210
2018-07-18T09:46:25.180Z,2130
2018-07-18T09:47:25.858Z,2145
2018-07-18T09:48:26.322Z,2320
2018-07-18T09:49:26.899Z,2365
2018-07-18T09:50:27.476Z,2350
2018-07-18T09:51:28.051Z,2345
2018-07-18T09:52:28.619Z,2355
2018-07-18T09:53:29.197Z,2370
2018-07-18T09:54:29.768Z,2385
2018-07-18T09:55:30.341Z,2400
2018-07-18T09:56:30.910Z,2435
2018-07-18T09:57:31.487Z,2450
2018-07-18T09:58:32.066Z,2410
2018-07-18T09:59:32.649Z,2370
2018-07-18T10:00:33.216Z,2370
2018-07-18T10:01:33.792Z,2320
2018-07-18T10:02:34.367Z,2280
2018-07-18T10:03:34.945Z,2315
2018-07-18T10:04:35.514Z,2460
2018-07-18T10:05:36.090Z,2455
2018-07-18T10:06:36.666Z,2475
2018-07-18T10:07:37.248Z,2505
2018-07-18T10:08:37.819Z,2520
2018-07-18T10:09:38.393Z,2485
2018-07-18T10:10:38.969Z,2500
2018-07-18T10:11:39.538Z,2540
2018-07-18T10:12:40.113Z,2525
2018-07-18T10:13:40.691Z,2565
2018-07-18T10:14:41.264Z,2530
2018-07-18T10:15:41.850Z,2565
2018-07-18T10:16:42.462Z,2470
2018-07-18T10:17:42.997Z,2510
2018-07-18T10:18:43.576Z,2500
2018-07-18T10:19:44.151Z,2500
2018-07-18T10:20:44.737Z,2495
2018-07-18T10:21:45.310Z,2490
2018-07-18T10:22:45.888Z,2325
2018-07-18T10:23:46.459Z,2495
2018-07-18T10:24:47.032Z,2490
2018-07-18T10:25:47.614Z,2485
2018-07-18T10:26:48.179Z,2540
2018-07-18T10:27:48.826Z,2530
2018-07-18T10:28:49.331Z,2420
2018-07-18T10:29:49.909Z,2475
2018-07-18T10:30:50.479Z,2485
2018-07-18T10:31:51.057Z,1620
2018-07-18T10:32:51.634Z,2495
2018-07-18T10:33:52.209Z,2525
2018-07-18T10:34:52.772Z,2510
2018-07-18T10:35:53.342Z,2550
2018-07-18T10:36:53.913Z,2585
2018-07-18T10:37:54.492Z,2570
2018-07-18T10:38:55.068Z,2575
2018-07-18T10:39:55.663Z,2585
2018-07-18T10:40:56.217Z,2635
2018-07-18T10:41:56.799Z,2660
2018-07-18T10:42:57.376Z,2710
2018-07-18T10:43:57.946Z,2760
2018-07-18T10:44:58.522Z,2765
2018-07-18T10:45:59.094Z,2745
2018-07-18T10:46:59.670Z,2685
2018-07-18T10:48:00.248Z,2770
2018-07-18T10:49:00.815Z,2825
2018-07-18T10:50:01.389Z,2895
2018-07-18T10:51:01.966Z,2130
2018-07-18T10:52:02.545Z,1000
2018-07-18T10:53:03.125Z,2695
2018-07-18T10:54:03.697Z,2605
2018-07-18T10:55:04.275Z,1950
2018-07-18T10:56:04.891Z,1765
2018-07-18T10:57:05.412Z,3050
2018-07-18T10:58:05.998Z,2995
2018-07-18T10:59:06.578Z,2895
2018-07-18T11:00:07.144Z,2985
2018-07-18T11:01:07.721Z,3040
2018-07-18T11:02:08.307Z,2240
2018-07-18T11:03:08.865Z,995
2018-07-18T11:04:09.440Z,940
2018-07-18T11:05:10.026Z,2165
2018-07-18T11:06:10.604Z,3065
2018-07-18T11:07:11.169Z,3180
2018-07-18T11:08:11.735Z,3025
2018-07-18T11:09:12.309Z,3160
2018-07-18T11:10:12.884Z,1100
2018-07-18T11:11:13.452Z,990
2018-07-18T11:12:14.021Z,950
2018-07-18T11:13:14.597Z,925
2018-07-18T11:14:15.162Z,945
2018-07-18T11:15:15.733Z,965
2018-07-18T11:16:16.303Z,1005
2018-07-18T11:17:16.877Z,1070
2018-07-18T11:18:17.450Z,1180
2018-07-18T11:19:18.022Z,3325
2018-07-18T11:20:18.598Z,3340
2018-07-18T11:21:19.170Z,3380
2018-07-18T11:22:19.746Z,1020
2018-07-18T11:23:20.311Z,940
2018-07-18T11:24:20.886Z,920
2018-07-18T11:25:21.457Z,935
2018-07-18T11:26:22.064Z,975
2018-07-18T11:27:22.592Z,1060
2018-07-18T11:28:23.185Z,3490
2018-07-18T11:29:23.749Z,3420
2018-07-18T11:30:24.327Z,1235
2018-07-18T11:31:24.901Z,2910
2018-07-18T11:32:25.472Z,3410
2018-07-18T11:33:26.051Z,845
2018-07-18T11:34:26.622Z,900
2018-07-18T11:35:27.186Z,820
2018-07-18T11:36:27.757Z,815
2018-07-18T11:37:28.325Z,875
2018-07-18T11:38:28.899Z,3415
2018-07-18T11:39:29.537Z,3510
2018-07-18T11:40:30.046Z,3580
2018-07-18T11:41:30.621Z,3570
2018-07-18T11:42:31.257Z,3565
2018-07-18T11:43:31.766Z,3575
2018-07-18T11:44:32.340Z,3550
2018-07-18T11:45:32.919Z,3520
2018-07-18T11:46:33.488Z,3565
2018-07-18T11:47:34.070Z,3605
2018-07-18T11:48:34.647Z,3635
2018-07-18T11:49:35.242Z,3605
2018-07-18T11:50:36.052Z,3555
2018-07-18T11:51:36.418Z,3515
2018-07-18T11:52:36.987Z,3475
2018-07-18T11:53:37.562Z,3495
2018-07-18T11:54:38.141Z,3510
2018-07-18T11:55:38.769Z,3545
2018-07-18T11:56:39.293Z,3600
2018-07-18T11:57:39.872Z,3650
2018-07-18T11:58:40.451Z,3605
2018-07-18T11:59:41.023Z,3320
2018-07-18T12:00:41.602Z,2620
2018-07-18T12:01:42.210Z,1120
2018-07-18T12:02:42.755Z,1180
2018-07-18T12:03:43.378Z,1050
2018-07-18T12:04:43.896Z,945
2018-07-18T12:05:44.473Z,895
2018-07-18T12:06:45.045Z,900
2018-07-18T12:07:45.622Z,850
2018-07-18T12:08:46.196Z,860
2018-07-18T12:09:46.760Z,890
2018-07-18T12:10:47.332Z,1370
2018-07-18T12:11:47.907Z,3445
2018-07-18T12:12:48.479Z,3560
2018-07-18T12:13:49.054Z,3455
2018-07-18T12:14:49.631Z,3000
2018-07-18T12:15:50.204Z,830
2018-07-18T12:16:50.787Z,895
2018-07-18T12:17:51.358Z,3500
2018-07-18T12:18:51.946Z,3270
2018-07-18T12:19:52.536Z,3520
2018-07-18T12:20:53.104Z,3545
2018-07-18T12:21:53.674Z,3520
2018-07-18T12:22:54.247Z,3485
2018-07-18T12:23:54.824Z,3455
2018-07-18T12:24:55.401Z,3430
2018-07-18T12:25:55.983Z,3430
2018-07-18T12:26:56.554Z,3445
2018-07-18T12:27:57.132Z,3485
2018-07-18T12:28:57.720Z,3520
2018-07-18T12:29:58.283Z,1080
2018-07-18T12:30:58.869Z,3100
2018-07-18T12:31:59.455Z,3510
2018-07-18T12:33:00.041Z,3465
2018-07-18T12:34:00.618Z,3405
2018-07-18T12:35:01.199Z,1665
2018-07-18T12:36:01.764Z,2270
2018-07-18T12:37:02.340Z,3490
2018-07-18T12:38:02.909Z,915
2018-07-18T12:39:03.483Z,785
2018-07-18T12:40:04.053Z,755
2018-07-18T12:41:04.621Z,740
2018-07-18T12:42:05.196Z,745
2018-07-18T12:43:05.771Z,750
2018-07-18T12:44:06.344Z,770
2018-07-18T12:45:06.912Z,825
2018-07-18T12:46:07.482Z,870
2018-07-18T12:47:08.055Z,1150
2018-07-18T12:48:08.631Z,1055
2018-07-18T12:49:09.253Z,3385
2018-07-18T12:50:09.810Z,3375
2018-07-18T12:51:10.406Z,940
2018-07-18T12:52:11.019Z,870
2018-07-18T12:53:11.585Z,820
2018-07-18T12:54:12.157Z,800
2018-07-18T12:55:12.750Z,800
2018-07-18T12:56:13.300Z,785
2018-07-18T12:57:13.912Z,820
2018-07-18T12:58:14.441Z,860
2018-07-18T12:59:15.012Z,880
2018-07-18T13:00:15.581Z,895
2018-07-18T13:01:16.155Z,910
2018-07-18T13:02:16.728Z,930
2018-07-18T13:03:17.299Z,975
2018-07-18T13:04:17.886Z,1005
2018-07-18T13:05:18.455Z,1000
2018-07-18T13:06:19.020Z,980
2018-07-18T13:07:19.610Z,950
2018-07-18T13:08:20.173Z,920
2018-07-18T13:09:20.758Z,905
2018-07-18T13:10:21.336Z,895
2018-07-18T13:11:21.911Z,895
2018-07-18T13:12:22.480Z,930
2018-07-18T13:13:23.065Z,970
2018-07-18T13:14:23.638Z,1330
2018-07-18T13:15:24.210Z,1135
2018-07-18T13:16:24.780Z,1045
2018-07-18T13:17:25.350Z,1385
2018-07-18T13:18:25.921Z,2230
2018-07-18T13:19:26.484Z,2940
2018-07-18T13:20:27.067Z,925
2018-07-18T13:21:27.627Z,940
2018-07-18T13:22:28.199Z,830
2018-07-18T13:23:28.764Z,805
2018-07-18T13:24:29.330Z,775
2018-07-18T13:25:29.898Z,755
2018-07-18T13:26:30.472Z,745
2018-07-18T13:27:31.037Z,765
2018-07-18T13:28:31.607Z,785
2018-07-18T13:29:32.175Z,795
2018-07-18T13:30:32.747Z,800
2018-07-18T13:31:33.313Z,810
2018-07-18T13:32:33.879Z,810
2018-07-18T13:33:34.453Z,815
2018-07-18T13:34:35.025Z,825
2018-07-18T13:35:35.595Z,840
2018-07-18T13:36:36.167Z,850
2018-07-18T13:37:36.729Z,835
2018-07-18T13:38:37.305Z,820
2018-07-18T13:39:37.867Z,825
2018-07-18T13:40:38.440Z,850
2018-07-18T13:41:39.027Z,835
2018-07-18T13:42:39.576Z,845
2018-07-18T13:43:40.151Z,835
2018-07-18T13:44:40.759Z,830
2018-07-18T13:45:41.276Z,825
2018-07-18T13:46:41.842Z,805
2018-07-18T13:47:42.414Z,785
2018-07-18T13:48:42.993Z,780
2018-07-18T13:49:43.651Z,765
2018-07-18T13:50:44.127Z,750
2018-07-18T13:51:44.699Z,760
2018-07-18T13:52:45.275Z,720
2018-07-18T13:53:45.839Z,710
2018-07-18T13:54:46.403Z,690
2018-07-18T13:55:46.986Z,680
2018-07-18T13:56:47.540Z,690
2018-07-18T13:57:48.111Z,705
2018-07-18T13:58:48.681Z,705
2018-07-18T13:59:49.248Z,710
2018-07-18T14:00:49.817Z,730